createdAt,value
2022-08-09T00:00:04.146Z,100476.00
2022-08-09T00:02:42.903Z,100472.44
2022-08-09T00:06:15.822Z,100468.91
2022-08-09T00:08:10.101Z,100469.56
2022-08-09T00:10:41.614Z,100466.22
2022-08-09T00:13:17.125Z,100471.31
2022-08-09T00:15:57.842Z,100469.00
2022-08-09T00:18:31.474Z,100476.75
2022-08-09T00:21:04.913Z,100474.37
2022-08-09T00:23:55.883Z,100468.81
2022-08-09T00:26:32.230Z,100471.50
2022-08-09T00:29:02.190Z,100484.16
2022-08-09T00:31:58.179Z,100477.16
2022-08-09T00:34:19.183Z,100474.00
2022-08-09T00:36:48.945Z,100474.91
2022-08-09T00:40:12.362Z,100475.19
2022-08-09T00:44:16.856Z,100474.81
2022-08-09T00:44:53.803Z,100472.75
2022-08-09T00:47:24.990Z,100464.09
2022-08-09T00:49:54.834Z,100462.25
2022-08-09T00:52:30.163Z,100465.53
2022-08-09T00:55:00.117Z,100464.09
2022-08-09T00:57:34.800Z,100454.31
2022-08-09T01:00:21.926Z,100451.91
2022-08-09T01:03:12.937Z,100447.91
2022-08-09T01:05:57.655Z,100443.50
2022-08-09T01:09:00.673Z,100441.97
2022-08-09T01:11:53.071Z,100444.81
2022-08-09T01:14:52.671Z,100442.44
2022-08-09T01:17:47.187Z,100444.41
2022-08-09T01:20:22.275Z,100457.66
2022-08-09T01:24:00.747Z,100452.25
2022-08-09T01:26:38.391Z,100451.91
2022-08-09T01:29:06.641Z,100467.19
2022-08-09T01:32:29.703Z,100446.06
2022-08-09T01:34:23.580Z,100447.13
2022-08-09T01:36:51.320Z,100449.63
2022-08-09T01:39:20.241Z,100446.78
2022-08-09T01:41:53.720Z,100433.69
2022-08-09T01:44:28.253Z,100438.16
2022-08-09T01:46:55.963Z,100440.41
2022-08-09T01:49:24.307Z,100436.38
2022-08-09T01:51:54.937Z,100423.94
2022-08-09T01:54:32.806Z,100438.56
2022-08-09T01:57:05.346Z,100434.44
2022-08-09T01:59:51.059Z,100428.72
2022-08-09T02:02:31.035Z,100431.78
2022-08-09T02:05:05.310Z,100428.34
2022-08-09T02:08:40.946Z,100420.72
2022-08-09T02:10:29.800Z,100427.44
2022-08-09T02:13:00.508Z,100424.59
2022-08-09T02:15:36.175Z,100421.53
2022-08-09T02:18:27.165Z,100406.84
2022-08-09T02:21:00.271Z,100408.16
2022-08-09T02:23:42.654Z,100405.84
2022-08-09T02:26:26.894Z,100401.75
2022-08-09T02:28:59.871Z,100403.06
2022-08-09T02:31:31.262Z,100404.53
2022-08-09T02:34:13.231Z,100409.16
2022-08-09T02:36:44.662Z,100408.88
2022-08-09T02:39:33.828Z,100414.72
2022-08-09T02:42:06.757Z,100421.31
2022-08-09T02:44:38.060Z,100418.28
2022-08-09T02:47:10.278Z,100412.81
2022-08-09T02:49:42.549Z,100403.88
2022-08-09T02:52:14.556Z,100411.91
2022-08-09T02:54:54.106Z,100410.53
2022-08-09T02:57:24.048Z,100417.38
2022-08-09T03:00:11.452Z,100422.12
2022-08-09T03:02:58.074Z,100423.63
2022-08-09T03:05:28.239Z,100421.78
2022-08-09T03:07:56.137Z,100416.78
2022-08-09T03:10:25.688Z,100426.00
2022-08-09T03:12:54.959Z,100423.75
2022-08-09T03:15:23.765Z,100424.75
2022-08-09T03:17:58.794Z,100426.13
2022-08-09T03:20:29.639Z,100419.97
2022-08-09T03:22:58.323Z,100425.53
2022-08-09T03:25:56.896Z,100417.88
2022-08-09T03:28:22.410Z,100425.94
2022-08-09T03:30:50.019Z,100421.13
2022-08-09T03:33:19.540Z,100423.47
2022-08-09T03:36:13.414Z,100420.06
2022-08-09T03:38:44.734Z,100418.28
2022-08-09T03:41:16.709Z,100420.59
2022-08-09T03:44:04.055Z,100418.12
2022-08-09T03:46:34.383Z,100415.28
2022-08-09T03:49:08.336Z,100417.97
2022-08-09T03:51:55.142Z,100428.31
2022-08-09T03:54:31.737Z,100420.97
2022-08-09T03:57:01.674Z,100420.31
2022-08-09T03:59:43.263Z,100421.81
2022-08-09T04:02:19.954Z,100416.94
2022-08-09T04:04:58.581Z,100427.47
2022-08-09T04:07:47.426Z,100428.94
2022-08-09T04:10:20.338Z,100438.62
2022-08-09T04:12:51.076Z,100432.81
2022-08-09T04:15:40.591Z,100443.34
2022-08-09T04:18:09.611Z,100438.69
2022-08-09T04:20:44.131Z,100430.25
2022-08-09T04:23:17.372Z,100447.22
2022-08-09T04:25:51.662Z,100441.88
2022-08-09T04:28:33.349Z,100435.22
2022-08-09T04:31:07.855Z,100446.53
2022-08-09T04:33:51.452Z,100445.28
2022-08-09T04:36:26.221Z,100455.22
2022-08-09T04:38:54.452Z,100451.53
2022-08-09T04:41:23.763Z,100459.22
2022-08-09T04:44:05.104Z,100458.72
2022-08-09T04:46:37.872Z,100464.75
2022-08-09T04:49:22.344Z,100459.19
2022-08-09T04:52:09.533Z,100448.38
2022-08-09T04:54:36.977Z,100452.91
2022-08-09T04:57:04.233Z,100454.19
2022-08-09T04:59:32.136Z,100449.41
2022-08-09T05:02:02.878Z,100449.38
2022-08-09T05:04:31.376Z,100459.66
2022-08-09T05:06:59.047Z,100444.56
2022-08-09T05:09:42.358Z,100445.81
2022-08-09T05:12:16.359Z,100451.13
2022-08-09T05:14:43.469Z,100447.50
2022-08-09T05:18:36.646Z,100452.88
2022-08-09T05:19:58.285Z,100456.06
2022-08-09T05:22:33.464Z,100455.97
2022-08-09T05:25:15.301Z,100459.09
2022-08-09T05:27:46.714Z,100466.16
2022-08-09T05:30:17.736Z,100460.37
2022-08-09T05:32:50.944Z,100460.75
2022-08-09T05:35:21.951Z,100454.63
2022-08-09T05:37:50.513Z,100456.41
2022-08-09T05:40:18.264Z,100452.88
2022-08-09T05:42:46.194Z,100459.03
2022-08-09T05:45:14.276Z,100463.97
2022-08-09T05:47:52.181Z,100460.78
2022-08-09T05:50:36.100Z,100469.47
2022-08-09T05:53:21.402Z,100461.63
2022-08-09T05:55:58.382Z,100460.00
2022-08-09T05:58:25.522Z,100455.97
2022-08-09T06:00:53.954Z,100456.66
2022-08-09T06:03:21.365Z,100455.91
2022-08-09T06:05:57.690Z,100453.56
2022-08-09T06:08:33.358Z,100464.56
2022-08-09T06:11:01.175Z,100464.13
2022-08-09T06:13:33.944Z,100457.06
2022-08-09T06:16:05.930Z,100467.66
2022-08-09T06:18:34.021Z,100470.34
2022-08-09T06:21:01.990Z,100468.31
2022-08-09T06:23:57.936Z,100469.78
2022-08-09T06:26:22.705Z,100463.41
2022-08-09T06:29:00.746Z,100466.47
2022-08-09T06:31:40.538Z,100467.28
2022-08-09T06:34:26.362Z,100466.19
2022-08-09T06:36:59.344Z,100474.47
2022-08-09T06:39:49.033Z,100467.37
2022-08-09T06:42:24.688Z,100465.09
2022-08-09T06:44:58.795Z,100473.34
2022-08-09T06:47:39.508Z,100460.41
2022-08-09T06:50:13.814Z,100463.69
2022-08-09T06:52:49.139Z,100469.69
2022-08-09T06:55:24.131Z,100472.78
2022-08-09T06:58:02.993Z,100479.31
2022-08-09T07:00:48.977Z,100472.22
2022-08-09T07:03:28.456Z,100473.47
2022-08-09T07:06:03.771Z,100480.13
2022-08-09T07:08:34.705Z,100480.34
2022-08-09T07:11:05.197Z,100469.62
2022-08-09T07:13:45.217Z,100486.16
2022-08-09T07:16:41.707Z,100473.41
2022-08-09T07:19:15.450Z,100481.81
2022-08-09T07:21:55.910Z,100477.19
2022-08-09T07:24:40.754Z,100482.56
2022-08-09T07:27:33.651Z,100476.50
2022-08-09T07:30:03.177Z,100468.09
2022-08-09T07:32:33.108Z,100472.41
2022-08-09T07:35:08.160Z,100476.69
2022-08-09T07:37:44.555Z,100479.78
2022-08-09T07:40:18.566Z,100477.28
2022-08-09T07:42:50.246Z,100471.66
2022-08-09T07:45:29.198Z,100467.97
2022-08-09T07:48:05.345Z,100471.47
2022-08-09T07:50:36.454Z,100472.50
2022-08-09T07:53:05.269Z,100471.34
2022-08-09T07:55:41.456Z,100472.84
2022-08-09T07:58:26.054Z,100477.44
2022-08-09T08:00:55.626Z,100476.09
2022-08-09T08:03:26.836Z,100479.78
2022-08-09T08:05:58.350Z,100474.22
2022-08-09T08:09:00.668Z,100476.09
2022-08-09T08:12:09.163Z,100472.97
2022-08-09T08:14:01.009Z,100475.28
2022-08-09T08:16:31.851Z,100472.59
2022-08-09T08:19:02.861Z,100478.97
2022-08-09T08:21:30.918Z,100474.37
2022-08-09T08:24:00.992Z,100476.16
2022-08-09T08:26:55.021Z,100468.84
2022-08-09T08:29:27.816Z,100467.78
2022-08-09T08:32:04.211Z,100461.00
2022-08-09T08:34:34.535Z,100455.94
2022-08-09T08:37:25.141Z,100455.72
2022-08-09T08:40:29.693Z,100457.72
2022-08-09T08:43:17.825Z,100450.22
2022-08-09T08:46:33.006Z,100458.63
2022-08-09T08:49:22.633Z,100453.66
2022-08-09T08:52:57.749Z,100444.56
2022-08-09T08:55:36.144Z,100452.19
2022-08-09T08:58:27.199Z,100449.72
2022-08-09T09:01:20.728Z,100448.78
2022-08-09T09:04:13.005Z,100454.59
2022-08-09T09:06:43.599Z,100448.97
2022-08-09T09:09:20.795Z,100437.69
2022-08-09T09:12:02.523Z,100446.59
2022-08-09T09:14:30.871Z,100456.88
2022-08-09T09:16:58.480Z,100448.16
2022-08-09T09:19:42.010Z,100445.25
2022-08-09T09:22:15.950Z,100444.13
2022-08-09T09:24:44.754Z,100448.69
2022-08-09T09:27:22.119Z,100445.84
2022-08-09T09:30:23.803Z,100447.00
2022-08-09T09:33:15.424Z,100442.94
2022-08-09T09:36:01.329Z,100444.84
2022-08-09T09:38:49.750Z,100445.75
2022-08-09T09:41:27.993Z,100443.72
2022-08-09T09:44:12.266Z,100444.34
2022-08-09T09:46:46.116Z,100447.75
2022-08-09T09:49:32.182Z,100433.91
2022-08-09T09:52:16.712Z,100441.19
2022-08-09T09:55:02.820Z,100446.59
2022-08-09T09:58:04.023Z,100437.94
2022-08-09T10:01:01.458Z,100450.81
2022-08-09T10:03:38.096Z,100439.56
2022-08-09T10:06:07.146Z,100435.81
2022-08-09T10:08:54.216Z,100444.72
2022-08-09T10:12:00.427Z,100441.84
2022-08-09T10:14:27.234Z,100433.44
2022-08-09T10:17:11.312Z,100426.50
2022-08-09T10:19:45.806Z,100430.63
2022-08-09T10:22:13.338Z,100429.66
2022-08-09T10:24:41.116Z,100428.66
2022-08-09T10:27:17.461Z,100431.75
2022-08-09T10:30:43.877Z,100424.63
2022-08-09T10:32:42.630Z,100420.41
2022-08-09T10:35:10.548Z,100412.63
2022-08-09T10:37:42.076Z,100414.31
2022-08-09T10:40:12.110Z,100413.81
2022-08-09T10:42:57.223Z,100413.81
2022-08-09T10:45:24.923Z,100410.25
2022-08-09T10:48:20.157Z,100416.50
2022-08-09T10:51:13.733Z,100408.88
2022-08-09T10:53:46.945Z,100414.62
2022-08-09T10:56:24.542Z,100398.16
2022-08-09T10:58:58.244Z,100406.37
2022-08-09T11:03:11.548Z,100401.22
2022-08-09T11:04:30.438Z,100397.34
2022-08-09T11:06:58.107Z,100402.28
2022-08-09T11:09:47.355Z,100394.53
2022-08-09T11:12:17.745Z,100390.50
2022-08-09T11:15:01.537Z,100399.22
2022-08-09T11:17:31.924Z,100396.59
2022-08-09T11:20:19.996Z,100387.47
2022-08-09T11:22:55.307Z,100392.06
2022-08-09T11:25:45.270Z,100393.78
2022-08-09T11:28:54.339Z,100394.97
2022-08-09T11:31:49.564Z,100387.97
2022-08-09T11:34:28.289Z,100384.72
2022-08-09T11:36:56.709Z,100377.62
2022-08-09T11:39:24.908Z,100382.06
2022-08-09T11:41:54.658Z,100388.38
2022-08-09T11:44:45.612Z,100380.13
2022-08-09T11:47:14.634Z,100385.87
2022-08-09T11:50:53.985Z,100374.69
2022-08-09T11:53:58.020Z,100388.91
2022-08-09T11:55:52.332Z,100383.72
2022-08-09T11:58:30.333Z,100373.84
2022-08-09T12:01:01.657Z,100374.41
2022-08-09T12:03:55.790Z,100369.19
2022-08-09T12:06:26.542Z,100372.13
2022-08-09T12:09:01.261Z,100373.94
2022-08-09T12:11:29.095Z,100376.56
2022-08-09T12:14:10.581Z,100377.31
2022-08-09T12:16:44.033Z,100373.22
2022-08-09T12:19:14.163Z,100366.34
2022-08-09T12:21:48.645Z,100365.00
2022-08-09T12:24:25.216Z,100365.78
2022-08-09T12:29:10.730Z,100351.88
2022-08-09T12:30:01.562Z,100356.84
2022-08-09T12:32:44.344Z,100343.75
2022-08-09T12:35:17.187Z,100344.84
2022-08-09T12:37:51.856Z,100344.31
2022-08-09T12:40:24.446Z,100347.25
2022-08-09T12:42:52.797Z,100343.97
2022-08-09T12:45:34.266Z,100348.69
2022-08-09T12:48:20.202Z,100344.84
2022-08-09T12:50:57.573Z,100336.66
2022-08-09T12:53:41.158Z,100335.19
2022-08-09T12:56:40.145Z,100331.63
2022-08-09T12:59:09.121Z,100336.56
2022-08-09T13:01:48.911Z,100338.78
2022-08-09T13:04:36.519Z,100333.62
2022-08-09T13:07:16.649Z,100333.34
2022-08-09T13:09:55.367Z,100331.19
2022-08-09T13:12:27.925Z,100330.88
2022-08-09T13:15:08.674Z,100330.31
2022-08-09T13:18:03.544Z,100325.66
2022-08-09T13:22:33.059Z,100333.56
2022-08-09T13:24:07.004Z,100330.75
2022-08-09T13:26:36.497Z,100327.69
2022-08-09T13:29:19.402Z,100333.16
2022-08-09T13:32:16.784Z,100336.66
2022-08-09T13:34:47.018Z,100331.50
2022-08-09T13:37:24.657Z,100334.81
2022-08-09T13:41:56.384Z,100325.50
2022-08-09T13:42:53.073Z,100328.22
2022-08-09T13:45:20.478Z,100341.19
2022-08-09T13:47:50.050Z,100336.94
2022-08-09T13:50:31.133Z,100323.66
2022-08-09T13:52:58.933Z,100331.00
2022-08-09T13:55:29.131Z,100330.22
2022-08-09T13:57:58.335Z,100328.81
2022-08-09T14:00:29.326Z,100332.31
2022-08-09T14:03:03.761Z,100332.00
2022-08-09T14:05:58.353Z,100330.59
2022-08-09T14:08:32.398Z,100331.03
2022-08-09T14:11:00.593Z,100336.81
2022-08-09T14:14:24.822Z,100321.87
2022-08-09T14:16:28.417Z,100322.37
2022-08-09T14:18:57.179Z,100328.28
2022-08-09T14:21:29.411Z,100329.16
2022-08-09T14:23:57.654Z,100331.13
2022-08-09T14:26:32.557Z,100331.75
2022-08-09T14:29:03.778Z,100331.19
2022-08-09T14:31:52.090Z,100343.78
2022-08-09T14:34:27.357Z,100328.59
2022-08-09T14:37:06.822Z,100337.53
2022-08-09T14:39:47.211Z,100332.16
2022-08-09T14:42:28.937Z,100326.81
2022-08-09T14:46:55.886Z,100320.88
2022-08-09T14:47:57.979Z,100320.22
2022-08-09T14:50:35.144Z,100321.19
2022-08-09T14:53:11.675Z,100315.03
2022-08-09T14:55:47.840Z,100315.50
2022-08-09T14:58:18.593Z,100315.94
2022-08-09T15:00:48.478Z,100315.00
2022-08-09T15:03:20.256Z,100317.12
2022-08-09T15:05:52.252Z,100312.06
2022-08-09T15:08:23.930Z,100311.91
2022-08-09T15:11:00.457Z,100299.28
2022-08-09T15:13:56.093Z,100307.03
2022-08-09T15:16:20.102Z,100296.91
2022-08-09T15:18:48.988Z,100295.41
2022-08-09T15:22:00.756Z,100299.25
2022-08-09T15:24:11.541Z,100303.91
2022-08-09T15:26:45.434Z,100298.88
2022-08-09T15:30:48.536Z,100299.69
2022-08-09T15:32:05.615Z,100292.34
2022-08-09T15:34:53.514Z,100290.16
2022-08-09T15:37:57.294Z,100293.94
2022-08-09T15:40:31.952Z,100295.50
2022-08-09T15:42:59.619Z,100293.88
2022-08-09T15:45:29.815Z,100301.06
2022-08-09T15:48:05.248Z,100292.84
2022-08-09T15:50:39.121Z,100298.63
2022-08-09T15:53:18.806Z,100298.88
2022-08-09T15:56:21.710Z,100288.75
2022-08-09T15:58:41.584Z,100290.06
2022-08-09T16:01:09.145Z,100284.59
2022-08-09T16:03:38.200Z,100285.09
2022-08-09T16:06:29.283Z,100291.37
2022-08-09T16:09:01.025Z,100291.13
2022-08-09T16:11:30.927Z,100294.41
2022-08-09T16:14:06.895Z,100290.03
2022-08-09T16:16:37.335Z,100279.09
2022-08-09T16:19:07.107Z,100285.06
2022-08-09T16:21:36.174Z,100287.72
2022-08-09T16:24:05.074Z,100289.34
2022-08-09T16:26:37.062Z,100300.16
2022-08-09T16:29:11.489Z,100299.50
2022-08-09T16:32:18.668Z,100301.56
2022-08-09T16:34:55.064Z,100296.53
2022-08-09T16:37:50.681Z,100305.06
2022-08-09T16:40:09.616Z,100304.91
2022-08-09T16:42:37.727Z,100302.88
2022-08-09T16:45:06.728Z,100297.44
2022-08-09T16:48:42.613Z,100298.88
2022-08-09T16:50:30.451Z,100311.28
2022-08-09T16:53:00.567Z,100306.06
2022-08-09T16:55:44.189Z,100306.91
2022-08-09T16:58:16.645Z,100307.31
2022-08-09T17:00:46.542Z,100303.28
2022-08-09T17:03:21.856Z,100310.69
2022-08-09T17:06:07.277Z,100307.00
2022-08-09T17:09:01.771Z,100308.13
2022-08-09T17:11:40.781Z,100306.34
2022-08-09T17:14:26.404Z,100313.00
2022-08-09T17:17:01.708Z,100301.72
2022-08-09T17:20:05.979Z,100308.06
2022-08-09T17:22:23.675Z,100302.16
2022-08-09T17:24:55.394Z,100304.44
2022-08-09T17:27:23.860Z,100308.72
2022-08-09T17:29:51.705Z,100312.38
2022-08-09T17:32:20.346Z,100309.59
2022-08-09T17:35:04.040Z,100311.63
2022-08-09T17:38:11.942Z,100308.22
2022-08-09T17:40:26.661Z,100325.94
2022-08-09T17:42:59.588Z,100318.19
2022-08-09T17:46:01.493Z,100333.28
2022-08-09T17:48:18.102Z,100323.97
2022-08-09T17:50:59.221Z,100336.13
2022-08-09T17:53:42.867Z,100342.25
2022-08-09T17:56:10.916Z,100332.72
2022-08-09T17:58:38.234Z,100342.37
2022-08-09T18:01:22.245Z,100339.31
2022-08-09T18:03:52.568Z,100336.50
2022-08-09T18:06:31.390Z,100342.66
2022-08-09T18:09:05.563Z,100349.84
2022-08-09T18:11:46.710Z,100349.97
2022-08-09T18:14:15.761Z,100354.44
2022-08-09T18:16:49.223Z,100362.44
2022-08-09T18:20:54.434Z,100353.72
2022-08-09T18:22:06.081Z,100362.81
2022-08-09T18:24:40.824Z,100369.63
2022-08-09T18:27:09.900Z,100366.19
2022-08-09T18:30:42.913Z,100367.69
2022-08-09T18:32:29.566Z,100372.41
2022-08-09T18:34:57.518Z,100379.22
2022-08-09T18:37:47.541Z,100389.09
2022-08-09T18:40:12.467Z,100387.09
2022-08-09T18:42:39.771Z,100395.53
2022-08-09T18:45:11.183Z,100388.31
2022-08-09T18:47:58.709Z,100402.19
2022-08-09T18:50:26.031Z,100405.19
2022-08-09T18:53:01.643Z,100398.44
2022-08-09T18:55:56.309Z,100416.63
2022-08-09T18:58:22.138Z,100404.84
2022-08-09T19:01:00.411Z,100418.84
2022-08-09T19:03:28.803Z,100422.38
2022-08-09T19:06:03.466Z,100417.78
2022-08-09T19:08:32.847Z,100438.00
2022-08-09T19:10:59.995Z,100436.56
2022-08-09T19:13:38.483Z,100452.94
2022-08-09T19:16:18.253Z,100463.25
2022-08-09T19:18:48.750Z,100466.56
2022-08-09T19:21:21.536Z,100473.22
2022-08-09T19:24:31.948Z,100483.09
2022-08-09T19:26:52.174Z,100478.97
2022-08-09T19:29:20.856Z,100480.09
2022-08-09T19:31:51.321Z,100481.00
2022-08-09T19:34:22.611Z,100474.84
2022-08-09T19:36:52.994Z,100478.22
2022-08-09T19:39:29.110Z,100491.09
2022-08-09T19:42:09.229Z,100500.53
2022-08-09T19:44:43.310Z,100498.78
2022-08-09T19:47:11.107Z,100502.41
2022-08-09T19:50:08.044Z,100500.97
2022-08-09T19:52:27.482Z,100506.03
2022-08-09T19:54:55.867Z,100505.91
2022-08-09T19:57:26.101Z,100505.81
2022-08-09T20:00:01.873Z,100505.50
2022-08-09T20:04:18.235Z,100518.81
2022-08-09T20:05:25.050Z,100512.41
2022-08-09T20:08:00.255Z,100512.06
2022-08-09T20:10:34.436Z,100529.34
2022-08-09T20:13:03.019Z,100524.75
2022-08-09T20:16:37.405Z,100516.25
2022-08-09T20:18:19.735Z,100517.72
2022-08-09T20:20:47.557Z,100525.41
2022-08-09T20:23:19.613Z,100526.66
2022-08-09T20:25:52.370Z,100521.50
2022-08-09T20:28:34.300Z,100535.03
2022-08-09T20:31:13.839Z,100537.81
2022-08-09T20:33:44.333Z,100542.00
2022-08-09T20:36:13.192Z,100550.06
2022-08-09T20:41:32.542Z,100540.84
2022-08-09T20:44:06.857Z,100545.81
2022-08-09T20:46:43.038Z,100550.19
2022-08-09T20:49:12.557Z,100547.47
2022-08-09T20:51:41.417Z,100545.37
2022-08-09T20:54:17.016Z,100547.06
2022-08-09T20:56:49.650Z,100548.41
2022-08-09T20:59:24.917Z,100552.31
2022-08-09T21:02:18.531Z,100543.62
2022-08-09T21:05:53.040Z,100549.03
2022-08-09T21:07:38.627Z,100551.12
2022-08-09T21:10:09.365Z,100556.53
2022-08-09T21:12:38.987Z,100548.47
2022-08-09T21:15:12.660Z,100551.38
2022-08-09T21:18:11.796Z,100552.41
2022-08-09T21:20:32.066Z,100557.84
2022-08-09T21:23:00.518Z,100562.81
2022-08-09T21:25:55.560Z,100566.59
2022-08-09T21:28:34.771Z,100566.81
2022-08-09T21:31:17.500Z,100566.37
2022-08-09T21:33:52.676Z,100579.06
2022-08-09T21:36:23.553Z,100577.81
2022-08-09T21:38:58.011Z,100577.81
2022-08-09T21:42:04.555Z,100573.44
2022-08-09T21:44:34.673Z,100577.81
2022-08-09T21:47:04.535Z,100576.78
2022-08-09T21:49:39.531Z,100577.00
2022-08-09T21:52:16.526Z,100579.91
2022-08-09T21:55:03.512Z,100576.37
2022-08-09T21:57:38.174Z,100579.87
2022-08-09T22:00:25.470Z,100578.66
2022-08-09T22:02:58.668Z,100574.69
2022-08-09T22:05:36.726Z,100578.25
2022-08-09T22:08:13.538Z,100582.00
2022-08-09T22:11:49.671Z,100576.59
2022-08-09T22:13:36.717Z,100571.00
2022-08-09T22:16:07.180Z,100573.28
2022-08-09T22:18:37.220Z,100574.94
2022-08-09T22:21:09.979Z,100570.16
2022-08-09T22:23:59.084Z,100571.22
2022-08-09T22:26:35.088Z,100571.84
2022-08-09T22:29:09.407Z,100570.59
2022-08-09T22:31:44.514Z,100567.50
2022-08-09T22:34:25.652Z,100572.22
2022-08-09T22:36:55.157Z,100563.88
2022-08-09T22:39:58.364Z,100548.72
2022-08-09T22:42:20.638Z,100557.22
2022-08-09T22:44:49.798Z,100559.53
2022-08-09T22:48:29.866Z,100561.97
2022-08-09T22:50:23.892Z,100547.88
2022-08-09T22:52:57.880Z,100555.31
2022-08-09T22:55:33.745Z,100554.69
2022-08-09T22:58:30.935Z,100553.78
2022-08-09T23:01:05.601Z,100553.75
2022-08-09T23:04:04.252Z,100553.75
2022-08-09T23:06:35.385Z,100556.38
2022-08-09T23:09:05.992Z,100558.81
2022-08-09T23:11:33.323Z,100563.13
2022-08-09T23:14:00.546Z,100563.06
2022-08-09T23:16:27.993Z,100556.84
2022-08-09T23:18:55.216Z,100554.91
2022-08-09T23:21:25.288Z,100550.06
2022-08-09T23:24:05.373Z,100554.19
2022-08-09T23:26:38.275Z,100553.09
2022-08-09T23:29:06.786Z,100547.09
2022-08-09T23:31:34.294Z,100541.91
2022-08-09T23:34:02.588Z,100545.22
2022-08-09T23:36:32.502Z,100531.31
2022-08-09T23:39:00.198Z,100544.28
2022-08-09T23:41:29.487Z,100547.12
2022-08-09T23:43:59.357Z,100533.03
2022-08-09T23:46:30.497Z,100534.50
2022-08-09T23:48:58.826Z,100536.56
2022-08-09T23:51:27.046Z,100539.38
2022-08-09T23:54:02.475Z,100529.44
2022-08-09T23:56:52.885Z,100531.28
2022-08-09T23:59:20.611Z,100531.22
